Thunder radar more information blitzortung!


avis per Pluja more information rain snow radar


Visita la nostra xarxa de llocs de meteo:

Template documentation
and downloads

And another site



Rain From: 16-11-2018 00:00 Until: 09:59 warning for: Rain Level: Yellow info button

Pagina Historial Weather Underground text

Diari Resum Juny 8, 2017 Unitats:  Mètric    Imperial   Tant
« Previous Dia
SegĂźent Dia »
Diari Setmana Mensual Anual Personalitzada
  Maxima: Minima: Media:
Temperatura: -17.8 °C -8.4 °C -4.7 °C
Punt de rosada: -17.8 °C -10.3 °C -9.2 °C
Humitat: Humidity % 49 % 61 %
Wind Speed: 0 km/h 0 km/h 13.4 km/h
RĂ fegues de vent: 0 km/h - -
Vent:- - SW
Pression baro: 0 hPa 34327.3 hPa -
Precipitacions: 0 mm    
Historical Graphs
 
 
Dades de taula per Juny 8, 2017
Temps Temperatura Punt de rosada Pression baro Vent Wind Speed RĂ fegues de vent Humitat Rainfall Rate (Hourly)
-17.8 °C -17.8 °C 0 hPa Calm     Humidity % 0 mm
00:03 -7.9 °C -10.2 °C 34533.8 hPa SW 6 km/h 6 km/h 77 % 0 mm
01:45 -7.9 °C -9.7 °C 34533.8 hPa WSW 2.6 km/h 5.1 km/h 81 % 0 mm
01:55 -7.9 °C -9.8 °C 34533.8 hPa SW 2.6 km/h 5.1 km/h 81 % 0 mm
02:05 -7.9 °C -9.6 °C 34533.8 hPa Calm   5.1 km/h 82 % 0 mm
02:15 -7.9 °C -9.6 °C 34533.8 hPa Calm     82 % 0 mm
02:25 -7.8 °C -9.5 °C 34533.8 hPa Calm     82 % 0 mm
02:35 -7.7 °C -9.4 °C 34533.8 hPa WSW 2.6 km/h 5.1 km/h 82 % 0 mm
02:45 -7.7 °C -9.5 °C 34533.8 hPa Calm   5.1 km/h 81 % 0 mm
02:55 -7.6 °C -9.5 °C 34533.8 hPa WSW 2.6 km/h 5.1 km/h 80 % 0 mm
03:05 -7.4 °C -9.4 °C 34533.8 hPa SW 2.6 km/h 5.1 km/h 79 % 0 mm
03:15 -7.1 °C -9.4 °C 34533.8 hPa WSW 2.6 km/h 7.7 km/h 77 % 0 mm
03:25 -6.9 °C -9.3 °C 34533.8 hPa West 5.1 km/h 7.7 km/h 76 % 0 mm
03:35 -7 °C -9.6 °C 34533.8 hPa WSW 2.6 km/h 7.7 km/h 75 % 0 mm
03:45 -6.6 °C -9.3 °C 34533.8 hPa SW 2.6 km/h 5.1 km/h 73 % 0 mm
03:55 -6.1 °C -9 °C 34496.6 hPa WSW 2.6 km/h 5.1 km/h 72 % 0 mm
04:05 -6.3 °C -9.4 °C 34496.6 hPa NE 2.6 km/h 10.3 km/h 70 % 0 mm
04:15 -6.1 °C -9.2 °C 34496.6 hPa NNE 2.6 km/h 10.3 km/h 70 % 0 mm
04:25 -5.7 °C -9.1 °C 34533.8 hPa NW 5.1 km/h 7.7 km/h 68 % 0 mm
04:35 -5.3 °C -9.1 °C 34533.8 hPa NNW 2.6 km/h 7.7 km/h 66 % 0 mm
04:45 -5.2 °C -8.9 °C 34533.8 hPa WNW 2.6 km/h 10.3 km/h 66 % 0 mm
04:55 -5.4 °C -9.3 °C 34496.6 hPa WSW 7.7 km/h 10.3 km/h 65 % 0 mm
05:05 -5.1 °C -8.9 °C 34496.6 hPa WSW 5.1 km/h 15.6 km/h 65 % 0 mm
05:15 -4.9 °C -8.9 °C 34496.6 hPa SW 7.7 km/h 12.9 km/h 64 % 0 mm
05:25 -5 °C -9 °C 34533.8 hPa SW 7.7 km/h 18.2 km/h 64 % 0 mm
05:35 -4.9 °C -9 °C 34533.8 hPa SW 5.1 km/h 20.8 km/h 63 % 0 mm
05:45 -4.8 °C -8.9 °C 34533.8 hPa SSW 7.7 km/h 18.2 km/h 63 % 0 mm
10:50 -4.7 °C -8.8 °C 34496.6 hPa SW 15 km/h 15 km/h 63 % 0 mm
10:55 -4.9 °C -9 °C 34496.6 hPa SW 17.9 km/h 17.9 km/h 63 % 0 mm
11:00 -4.7 °C -8.7 °C 34496.6 hPa SSW 9 km/h 9 km/h 64 % 0 mm
11:05 -4.5 °C -8.7 °C 34496.6 hPa SSW 6 km/h 6 km/h 63 % 0 mm
11:10 -4.5 °C -8.8 °C 34496.6 hPa SSW 15.3 km/h 15.3 km/h 62 % 0 mm
11:15 -4.2 °C -8.5 °C 34496.6 hPa SSW 11.9 km/h 11.9 km/h 62 % 0 mm
11:20 -4.3 °C -8.6 °C 34496.6 hPa SW 23.8 km/h 23.8 km/h 62 % 0 mm
11:25 -4.1 °C -8.5 °C 34496.6 hPa WSW 15 km/h 15 km/h 61 % 0 mm
11:30 -3.8 °C -8.6 °C 34496.6 hPa SSW 17.9 km/h 17.9 km/h 59 % 0 mm
11:35 -4 °C -8.6 °C 34496.6 hPa WSW 23.8 km/h 23.8 km/h 60 % 0 mm
11:40 -3.8 °C -8.6 °C 34496.6 hPa SW 9 km/h 9 km/h 59 % 0 mm
11:45 -3.6 °C -8.3 °C 34496.6 hPa SW 15 km/h 15 km/h 59 % 0 mm
11:50 -3.4 °C -8.4 °C 34496.6 hPa SW 15 km/h 15 km/h 58 % 0 mm
11:55 -3.6 °C -8.5 °C 34496.6 hPa SW 20.3 km/h 20.3 km/h 58 % 0 mm
12:00 -3.4 °C -8.5 °C 34496.6 hPa SSW 15 km/h 15 km/h 57 % 0 mm
12:05 -3.5 °C -8.6 °C 34496.6 hPa SSW 17.9 km/h 17.9 km/h 57 % 0 mm
12:06 -3.5 °C -8.6 °C 34496.6 hPa SSW 20.9 km/h 20.9 km/h 57 % 0 mm
12:11 -3.3 °C -8.4 °C 34496.6 hPa South 15 km/h 15 km/h 57 % 0 mm
12:16 -3.4 °C -8.5 °C 34496.6 hPa WSW 14 km/h 14 km/h 57 % 0 mm
12:18 -3.3 °C -8.4 °C 34496.6 hPa SSW 11.9 km/h 11.9 km/h 57 % 0 mm
12:23 -3.2 °C -8.4 °C 34496.6 hPa SW 9.8 km/h 9.8 km/h 56 % 0 mm
12:28 -3.1 °C -8.5 °C 34496.6 hPa SE 9 km/h 9 km/h 55 % 0 mm
12:33 -3.1 °C -8.5 °C 34496.6 hPa South 9 km/h 9 km/h 55 % 0 mm
12:38 -2.8 °C -8.3 °C 34496.6 hPa SW 9 km/h 9 km/h 55 % 0 mm
12:43 -3.1 °C -8.6 °C 34496.6 hPa SW 15 km/h 15 km/h 55 % 0 mm
12:48 -3.4 °C -8.8 °C 34496.6 hPa SW 17.9 km/h 17.9 km/h 55 % 0 mm
12:53 -3.3 °C -8.7 °C 34496.6 hPa South 23.8 km/h 23.8 km/h 55 % 0 mm
12:58 -3.3 °C -8.7 °C 34496.6 hPa SW 17.9 km/h 17.9 km/h 55 % 0 mm
13:03 -3.2 °C -8.7 °C 34462.7 hPa WSW 20.9 km/h 20.9 km/h 55 % 0 mm
13:08 -3.1 °C -8.6 °C 34462.7 hPa South 20.9 km/h 20.9 km/h 55 % 0 mm
13:13 -2.9 °C -8.5 °C 34462.7 hPa SSW 14.5 km/h 14.5 km/h 54 % 0 mm
13:18 -2.7 °C -8.3 °C 34462.7 hPa SSW 11.9 km/h 11.9 km/h 54 % 0 mm
13:23 -2.5 °C -8.3 °C 34462.7 hPa SSE 11.9 km/h 11.9 km/h 53 % 0 mm
13:28 -2.6 °C -8.4 °C 34462.7 hPa SW 20.9 km/h 20.9 km/h 53 % 0 mm
13:33 -2.7 °C -8.7 °C 34496.6 hPa SSW 23.8 km/h 23.8 km/h 52 % 0 mm
13:38 -2.8 °C -8.6 °C 34496.6 hPa SW 20.9 km/h 20.9 km/h 53 % 0 mm
13:43 -2.7 °C -8.8 °C 34496.6 hPa South 11.9 km/h 11.9 km/h 51 % 0 mm
13:48 -2.3 °C -8.3 °C 34462.7 hPa SW 12.7 km/h 12.7 km/h 52 % 0 mm
13:53 -2.5 °C -8.7 °C 34462.7 hPa WSW 17.9 km/h 17.9 km/h 51 % 0 mm
13:58 -2.5 °C -8.4 °C 34462.7 hPa SW 15 km/h 15 km/h 52 % 0 mm
13:59 -2.4 °C -8.6 °C 34462.7 hPa South 18.3 km/h 18.3 km/h 51 % 0 mm
14:04 -2.5 °C -8.7 °C 34462.7 hPa WSW 17.9 km/h 17.9 km/h 51 % 0 mm
14:09 -2.7 °C -8.8 °C 34462.7 hPa SW 11.9 km/h 11.9 km/h 51 % 0 mm
14:14 -2.2 °C -8.4 °C 34462.7 hPa SE 11.9 km/h 11.9 km/h 51 % 0 mm
14:19 -2.1 °C -8.2 °C 34462.7 hPa SSW 15 km/h 15 km/h 51 % 0 mm
14:24 -2.3 °C -8.4 °C 34462.7 hPa SSW 15 km/h 15 km/h 51 % 0 mm
14:29 -2.1 °C -8.3 °C 34462.7 hPa SSW 16.6 km/h 16.6 km/h 51 % 0 mm
14:34 -2.2 °C -8.3 °C 34462.7 hPa SSE 17.9 km/h 17.9 km/h 51 % 0 mm
14:39 -2.4 °C -8.6 °C 34462.7 hPa South 17.9 km/h 17.9 km/h 51 % 0 mm
14:44 -2.5 °C -8.7 °C 34462.7 hPa South 26.9 km/h 26.9 km/h 51 % 0 mm
14:49 -2.3 °C -8.5 °C 34428.8 hPa SW 19.6 km/h 19.6 km/h 51 % 0 mm
14:54 -2.5 °C -8.8 °C 34428.8 hPa SW 20.9 km/h 20.9 km/h 50 % 0 mm
14:59 -2.4 °C -8.5 °C 34428.8 hPa WSW 20.9 km/h 20.9 km/h 51 % 0 mm
15:04 -2.2 °C -8.5 °C 34462.7 hPa South 15 km/h 15 km/h 50 % 0 mm
15:09 -2.2 °C -8.5 °C 34462.7 hPa SW 20.9 km/h 20.9 km/h 50 % 0 mm
15:14 -2.2 °C -8.6 °C 34462.7 hPa WSW 16.1 km/h 16.1 km/h 50 % 0 mm
15:19 -2.1 °C -8.2 °C 34428.8 hPa WSW 15 km/h 15 km/h 51 % 0 mm
15:24 -1.9 °C -8.2 °C 34428.8 hPa SW 15.6 km/h 15.6 km/h 50 % 0 mm
15:29 -1.8 °C -7.9 °C 34428.8 hPa SSW 20.9 km/h 20.9 km/h 51 % 0 mm
15:34 -1.8 °C -7.9 °C 34428.8 hPa SW 25.1 km/h 25.1 km/h 51 % 0 mm
15:39 -2.1 °C -8.4 °C 34428.8 hPa SSW 17.9 km/h 17.9 km/h 50 % 0 mm
15:44 -2.1 °C -8.4 °C 34428.8 hPa SW 20.9 km/h 20.9 km/h 50 % 0 mm
15:49 -1.7 °C -8.2 °C 34428.8 hPa SW 16.1 km/h 16.1 km/h 49 % 0 mm
15:54 -1.8 °C -8.2 °C 34428.8 hPa WSW 15 km/h 15 km/h 50 % 0 mm
15:59 -2.2 °C -8.5 °C 34428.8 hPa SW 15 km/h 15 km/h 50 % 0 mm
16:04 -2.3 °C -8.6 °C 34428.8 hPa SW 25.1 km/h 25.1 km/h 50 % 0 mm
16:09 -2.3 °C -8.4 °C 34428.8 hPa ESE 15 km/h 15 km/h 51 % 0 mm
16:14 -2.2 °C -8.5 °C 34428.8 hPa WSW 29.8 km/h 29.8 km/h 50 % 0 mm
16:19 -2 °C -8.3 °C 34395 hPa WSW 15 km/h 15 km/h 50 % 0 mm
16:24 -2.5 °C -8.8 °C 34395 hPa WSW 26.9 km/h 26.9 km/h 50 % 0 mm
16:29 -2.4 °C -8.6 °C 34395 hPa SW 20.3 km/h 20.3 km/h 51 % 0 mm
16:34 -2.5 °C -8.7 °C 34395 hPa SW 32.8 km/h 32.8 km/h 51 % 0 mm
16:39 -2.8 °C -8.9 °C 34395 hPa South 23.8 km/h 23.8 km/h 51 % 0 mm
16:44 -2.7 °C -8.8 °C 34395 hPa SSE 15 km/h 15 km/h 51 % 0 mm
16:49 -2.8 °C -8.9 °C 34395 hPa SSW 20.9 km/h 22 km/h 51 % 0 mm
16:54 -2.7 °C -8.7 °C 34395 hPa SSW 17.9 km/h 17.9 km/h 52 % 0 mm
16:59 -2.4 °C -8.6 °C 34395 hPa SW 15 km/h 15 km/h 51 % 0 mm
17:04 -2.7 °C -8.8 °C 34395 hPa SSW 27.7 km/h 27.7 km/h 51 % 0 mm
17:09 -2.8 °C -8.8 °C 34395 hPa SW 26.9 km/h 26.9 km/h 52 % 0 mm
17:14 -2.7 °C -8.8 °C 34395 hPa West 23.8 km/h 23.8 km/h 51 % 0 mm
17:19 -2.6 °C -8.5 °C 34428.8 hPa SSW 27.2 km/h 27.2 km/h 52 % 0 mm
17:24 -2.8 °C -8.6 °C 34428.8 hPa SSW 23.8 km/h 23.8 km/h 53 % 0 mm
17:29 -2.8 °C -8.9 °C 34428.8 hPa SW 23.8 km/h 23.8 km/h 51 % 0 mm
17:34 -2.9 °C -8.8 °C 34395 hPa SW 17.9 km/h 17.9 km/h 52 % 0 mm
17:39 -2.8 °C -8.9 °C 34395 hPa SW 20.9 km/h 20.9 km/h 51 % 0 mm
17:44 -3.1 °C -9 °C 34395 hPa SW 17.9 km/h 17.9 km/h 52 % 0 mm
17:49 -2.8 °C -8.7 °C 34395 hPa SW 15 km/h 15 km/h 52 % 0 mm
17:59 -2.8 °C -8.8 °C 34395 hPa SW 17.9 km/h 17.9 km/h 52 % 0 mm
18:04 -2.7 °C -8.6 °C 34361.1 hPa WSW 11.9 km/h 11.9 km/h 52 % 0 mm
18:09 -2.7 °C -8.8 °C 34361.1 hPa South 20.9 km/h 20.9 km/h 51 % 0 mm
18:19 -3.1 °C -9 °C 34395 hPa SSW 20.9 km/h 20.9 km/h 52 % 0 mm
18:24 -3.1 °C -9 °C 34395 hPa South 11.9 km/h 11.9 km/h 52 % 0 mm
18:29 -3.1 °C -9 °C 34395 hPa WSW 17.9 km/h 17.9 km/h 52 % 0 mm
18:34 -3.3 °C -9.2 °C 34361.1 hPa SW 20.9 km/h 20.9 km/h 52 % 0 mm
18:39 -3.2 °C -9.1 °C 34361.1 hPa West 20.3 km/h 20.3 km/h 52 % 0 mm
18:44 -3.2 °C -9.1 °C 34361.1 hPa SSW 15.3 km/h 15.3 km/h 52 % 0 mm
18:49 -3.2 °C -9.1 °C 34361.1 hPa SW 6 km/h 7.6 km/h 52 % 0 mm
18:54 -3.4 °C -9.3 °C 34361.1 hPa SW 23.8 km/h 23.8 km/h 52 % 0 mm
18:59 -3.3 °C -9.2 °C 34361.1 hPa SW 9 km/h 9 km/h 52 % 0 mm
19:04 -3.2 °C -9.1 °C 34361.1 hPa WSW 9.3 km/h 9.3 km/h 52 % 0 mm
19:09 -3.3 °C -9.2 °C 34361.1 hPa SW 15 km/h 15 km/h 52 % 0 mm
19:14 -3.7 °C -9.7 °C 34361.1 hPa SW 17.9 km/h 17.9 km/h 51 % 0 mm
19:15 -3.7 °C -9.6 °C 34361.1 hPa SSW 15 km/h 15 km/h 52 % 0 mm
19:20 -3.7 °C -9.6 °C 34327.3 hPa WSW 11.9 km/h 11.9 km/h 52 % 0 mm
19:25 -3.8 °C -9.6 °C 34327.3 hPa SSW 15 km/h 15 km/h 52 % 0 mm
19:30 -3.9 °C -9.6 °C 34327.3 hPa SW 17.4 km/h 17.4 km/h 53 % 0 mm
19:35 -3.9 °C -9.8 °C 34327.3 hPa SSW 20.9 km/h 20.9 km/h 52 % 0 mm
19:40 -3.9 °C -9.6 °C 34327.3 hPa South 15.3 km/h 15.3 km/h 53 % 0 mm
19:45 -4.2 °C -9.7 °C 34327.3 hPa SE 20.9 km/h 20.9 km/h 54 % 0 mm
19:50 -4.3 °C -9.8 °C 34327.3 hPa WSW 22 km/h 22 km/h 54 % 0 mm
19:55 -4.4 °C -9.8 °C 34327.3 hPa SW 15 km/h 15 km/h 55 % 0 mm
20:00 -4.4 °C -9.8 °C 34327.3 hPa SW 16.6 km/h 16.6 km/h 55 % 0 mm
20:05 -4.6 °C -9.7 °C 34327.3 hPa WSW 18.3 km/h 18.3 km/h 56 % 0 mm
20:10 -4.7 °C -9.8 °C 34327.3 hPa WSW 9 km/h 9 km/h 56 % 0 mm
20:15 -4.8 °C -9.9 °C 34327.3 hPa WSW 19.6 km/h 19.6 km/h 56 % 0 mm
20:20 -4.9 °C -9.9 °C 34327.3 hPa South 17.9 km/h 17.9 km/h 57 % 0 mm
20:25 -5.1 °C -10.1 °C 34327.3 hPa SW 15 km/h 15 km/h 57 % 0 mm
20:30 -5.2 °C -10.1 °C 34327.3 hPa SSW 16.1 km/h 16.1 km/h 58 % 0 mm
20:35 -5.4 °C -10.2 °C 34327.3 hPa SW 20.9 km/h 20.9 km/h 58 % 0 mm
20:40 -5.4 °C -10.1 °C 34327.3 hPa WSW 12.7 km/h 12.7 km/h 59 % 0 mm
20:45 -5.6 °C -10.2 °C 34327.3 hPa WSW 17.9 km/h 17.9 km/h 59 % 0 mm
20:50 -5.7 °C -10.2 °C 34327.3 hPa SW 23.8 km/h 23.8 km/h 60 % 0 mm
20:55 -5.7 °C -10.1 °C 34327.3 hPa WSW 15 km/h 15 km/h 61 % 0 mm
21:00 -5.8 °C -10.2 °C 34327.3 hPa SW 9 km/h 9.3 km/h 61 % 0 mm
21:05 -5.9 °C -10.1 °C 34327.3 hPa West 15 km/h 15 km/h 62 % 0 mm
21:06 -5.9 °C -10.1 °C 34327.3 hPa SW 15 km/h 15 km/h 62 % 0 mm
21:11 -6 °C -10.2 °C 34327.3 hPa WSW 14 km/h 14 km/h 62 % 0 mm
21:15 -7.7 °C -9.4 °C 34395 hPa Calm   2.6 km/h 82 % 0 mm
21:16 -6.1 °C -10.3 °C 34327.3 hPa SW 15 km/h 15 km/h 62 % 0 mm
21:21 -6.2 °C -10.2 °C 34327.3 hPa WSW 17.9 km/h 17.9 km/h 63 % 0 mm
21:25 -7.6 °C -9.3 °C 34428.8 hPa WSW 2.6 km/h 7.7 km/h 82 % 0 mm
21:26 -6.3 °C -10.3 °C 34327.3 hPa SSW 15 km/h 15 km/h 63 % 0 mm
21:31 -6.3 °C -10.2 °C 34327.3 hPa SW 22 km/h 22 km/h 64 % 0 mm
21:35 -7.7 °C -9.4 °C 34395 hPa West 2.6 km/h 5.1 km/h 82 % 0 mm
21:36 -6.4 °C -10.2 °C 34327.3 hPa SSW 11.9 km/h 11.9 km/h 65 % 0 mm
21:41 -6.5 °C -10.2 °C 34327.3 hPa WSW 17.9 km/h 17.9 km/h 66 % 0 mm
21:45 -7.6 °C -9.4 °C 34395 hPa West 7.7 km/h 7.7 km/h 81 % 0 mm
21:46 -6.6 °C -10.2 °C 34327.3 hPa SW 15 km/h 15 km/h 66 % 0 mm
21:51 -6.6 °C -10.1 °C 34361.1 hPa SSW 16.1 km/h 16.1 km/h 67 % 0 mm
21:55 -7.6 °C -9.4 °C 34428.8 hPa West 5.1 km/h 7.7 km/h 81 % 0 mm
21:56 -6.7 °C -10.2 °C 34361.1 hPa SW 11.9 km/h 11.9 km/h 67 % 0 mm
22:01 -6.7 °C -10.1 °C 34361.1 hPa SW 11.9 km/h 11.9 km/h 68 % 0 mm
22:05 -7.6 °C -9.3 °C 34428.8 hPa WSW 2.6 km/h 7.7 km/h 82 % 0 mm
22:06 -6.7 °C -9.8 °C 34361.1 hPa SW 15 km/h 15 km/h 70 % 0 mm
22:11 -6.8 °C -9.8 °C 34361.1 hPa SW 17.9 km/h 17.9 km/h 71 % 0 mm
22:15 -7.7 °C -9.5 °C 34428.8 hPa WSW 2.6 km/h 5.1 km/h 81 % 0 mm
22:16 -6.8 °C -9.8 °C 34361.1 hPa SW 11.9 km/h 11.9 km/h 71 % 0 mm
22:21 -6.9 °C -9.8 °C 34395 hPa SSW 9.8 km/h 9.8 km/h 72 % 0 mm
22:25 -7.8 °C -9.6 °C 34395 hPa Calm     81 % 0 mm
22:26 -6.9 °C -9.8 °C 34395 hPa SW 9 km/h 9 km/h 72 % 0 mm
22:31 -7 °C -9.9 °C 34395 hPa SSW 8 km/h 8.5 km/h 72 % 0 mm
22:35 -7.9 °C -9.6 °C 34395 hPa Calm   7.7 km/h 82 % 0 mm
22:36 -7.1 °C -9.8 °C 34361.1 hPa West 9 km/h 9 km/h 73 % 0 mm
22:41 -7.1 °C -9.9 °C 34361.1 hPa WSW 12.7 km/h 12.7 km/h 73 % 0 mm
22:45 -8 °C -9.7 °C 34395 hPa SW 5.1 km/h 5.1 km/h 82 % 0 mm
22:46 -7.2 °C -9.8 °C 34361.1 hPa SW 10.3 km/h 10.3 km/h 74 % 0 mm
22:51 -7.2 °C -9.8 °C 34395 hPa WSW 11.9 km/h 11.9 km/h 74 % 0 mm
22:55 -8.1 °C -9.7 °C 34395 hPa Calm     83 % 0 mm
22:56 -7.2 °C -9.8 °C 34395 hPa SW 11.9 km/h 11.9 km/h 74 % 0 mm
23:01 -7.2 °C -9.8 °C 34395 hPa SW 11.9 km/h 11.9 km/h 75 % 0 mm
23:05 -8.1 °C -9.7 °C 34395 hPa WSW 5.1 km/h 5.1 km/h 83 % 0 mm
23:06 -7.3 °C -9.7 °C 34361.1 hPa SW 6 km/h 8 km/h 76 % 0 mm
23:11 -7.3 °C -9.6 °C 34361.1 hPa South 9 km/h 9 km/h 77 % 0 mm
23:15 -8.2 °C -9.8 °C 34395 hPa Calm   2.6 km/h 83 % 0 mm
23:16 -7.3 °C -9.6 °C 34361.1 hPa SSW 6.8 km/h 6.8 km/h 77 % 0 mm
23:21 -7.4 °C -9.7 °C 34395 hPa SSW 6 km/h 6 km/h 77 % 0 mm
23:25 -8.3 °C -9.9 °C 34395 hPa Calm   5.1 km/h 83 % 0 mm
23:26 -7.4 °C -9.7 °C 34395 hPa SSW 9 km/h 9 km/h 77 % 0 mm
23:31 -7.4 °C -9.7 °C 34395 hPa South 11.9 km/h 11.9 km/h 77 % 0 mm
23:35 -8.4 °C -9.9 °C 34395 hPa SW 2.6 km/h 7.7 km/h 84 % 0 mm
23:36 -7.4 °C -9.7 °C 34395 hPa SW 11.9 km/h 11.9 km/h 77 % 0 mm
23:41 -7.5 °C -9.7 °C 34395 hPa SW 11.9 km/h 11.9 km/h 78 % 0 mm
23:45 -8.3 °C -10.1 °C 34395 hPa WSW 5.1 km/h 5.1 km/h 82 % 0 mm
23:46 -7.5 °C -9.7 °C 34395 hPa WSW 11.9 km/h 11.9 km/h 78 % 0 mm
23:51 -7.6 °C -9.7 °C 34395 hPa SW 11.9 km/h 11.9 km/h 78 % 0 mm
23:55 -8.3 °C -10 °C 34395 hPa WSW 5.1 km/h 7.7 km/h 82 % 0 mm
23:56 -7.6 °C -9.7 °C 34395 hPa SW 9 km/h 9 km/h 78 % 0 mm
Meteo Sesrovires
Elogis d' Weather Underground - 1.5 mb

Guio original per  Jim McMurry - jmcmurry@mwt.net Adaptat per a la plantilla per  Wim van der Kuil - Leuven-Template.eu

Trobareu la nostra informacio del temps tambe a:

Weather Underground

AWEKAS